<?xml version="1.0" encoding="UTF-8" standalone="no" ?>
<gpx xmlns="http://www.topografix.com/GPX/1/1" xmlns:xsi="http://www.w3.org/2001/XMLSchema-instance" xsi:schemaLocation="http://www.topografix.com/GPX/1/1 http://www.topografix.com/GPX/1/1/gpx.xsd" version="1.1" creator="VisuGPX - https://www.visugpx.com">
  <metadata>
    <name>Rando LN</name>
  </metadata>
  <trk>
    <name><![CDATA[Banassac Gare]]></name>
    <extensions>
      <line xmlns="http://www.topografix.com/GPX/gpx_style/0/2">
        <color>00ff33</color>
        <width>4</width>
      </line>
    </extensions>
    <trkseg>
      <trkpt lat="44.47865" lon="3.17068">
        <ele>798.807</ele>
        <time>2019-07-07T16:25:30Z</time>
      </trkpt>
      <trkpt lat="44.47865" lon="3.17068">
        <ele>798.807</ele>
        <time>2019-07-07T16:25:30Z</time>
      </trkpt>
      <trkpt lat="44.47865" lon="3.17068">
        <ele>798.807</ele>
        <time>2019-07-07T16:25:30Z</time>
      </trkpt>
      <trkpt lat="44.47794" lon="3.17162">
        <ele>806.608</ele>
        <time>2019-07-07T16:25:50Z</time>
      </trkpt>
      <trkpt lat="44.47722" lon="3.17182">
        <ele>805.977</ele>
        <time>2019-07-07T16:26:10Z</time>
      </trkpt>
      <trkpt lat="44.47642" lon="3.17173">
        <ele>802.891</ele>
        <time>2019-07-07T16:26:30Z</time>
      </trkpt>
      <trkpt lat="44.47593" lon="3.17158">
        <ele>798.365</ele>
        <time>2019-07-07T16:26:50Z</time>
      </trkpt>
      <trkpt lat="44.47566" lon="3.17115">
        <ele>798.042</ele>
        <time>2019-07-07T16:27:10Z</time>
      </trkpt>
      <trkpt lat="44.4744" lon="3.17003">
        <ele>790.416</ele>
        <time>2019-07-07T16:27:30Z</time>
      </trkpt>
      <trkpt lat="44.47337" lon="3.16941">
        <ele>783.083</ele>
        <time>2019-07-07T16:27:50Z</time>
      </trkpt>
      <trkpt lat="44.47245" lon="3.16885">
        <ele>775.892</ele>
        <time>2019-07-07T16:28:10Z</time>
      </trkpt>
      <trkpt lat="44.47108" lon="3.16853">
        <ele>772.158</ele>
        <time>2019-07-07T16:28:30Z</time>
      </trkpt>
      <trkpt lat="44.4702" lon="3.1682">
        <ele>768.383</ele>
        <time>2019-07-07T16:28:50Z</time>
      </trkpt>
      <trkpt lat="44.46925" lon="3.16767">
        <ele>768.425</ele>
        <time>2019-07-07T16:29:10Z</time>
      </trkpt>
      <trkpt lat="44.46874" lon="3.16751">
        <ele>769.517</ele>
        <time>2019-07-07T16:29:30Z</time>
      </trkpt>
      <trkpt lat="44.46866" lon="3.16738">
        <ele>770.608</ele>
        <time>2019-07-07T16:29:50Z</time>
      </trkpt>
      <trkpt lat="44.46825" lon="3.16726">
        <ele>773.972</ele>
        <time>2019-07-07T16:30:10Z</time>
      </trkpt>
      <trkpt lat="44.46773" lon="3.16745">
        <ele>771.936</ele>
        <time>2019-07-07T16:30:30Z</time>
      </trkpt>
      <trkpt lat="44.46744" lon="3.16794">
        <ele>773.71</ele>
        <time>2019-07-07T16:30:50Z</time>
      </trkpt>
      <trkpt lat="44.46714" lon="3.16868">
        <ele>776.437</ele>
        <time>2019-07-07T16:31:10Z</time>
      </trkpt>
      <trkpt lat="44.46674" lon="3.16904">
        <ele>781.471</ele>
        <time>2019-07-07T16:31:30Z</time>
      </trkpt>
      <trkpt lat="44.46646" lon="3.16917">
        <ele>782.228</ele>
        <time>2019-07-07T16:31:50Z</time>
      </trkpt>
      <trkpt lat="44.46593" lon="3.16922">
        <ele>796.567</ele>
        <time>2019-07-07T16:32:10Z</time>
      </trkpt>
      <trkpt lat="44.46592" lon="3.17016">
        <ele>794.933</ele>
        <time>2019-07-07T16:32:30Z</time>
      </trkpt>
      <trkpt lat="44.4657" lon="3.17046">
        <ele>798.293</ele>
        <time>2019-07-07T16:32:50Z</time>
      </trkpt>
      <trkpt lat="44.46512" lon="3.16997">
        <ele>817.365</ele>
        <time>2019-07-07T16:33:10Z</time>
      </trkpt>
      <trkpt lat="44.46476" lon="3.17018">
        <ele>822.121</ele>
        <time>2019-07-07T16:33:30Z</time>
      </trkpt>
      <trkpt lat="44.4642" lon="3.17076">
        <ele>827.008</ele>
        <time>2019-07-07T16:33:50Z</time>
      </trkpt>
      <trkpt lat="44.46353" lon="3.17117">
        <ele>840.213</ele>
        <time>2019-07-07T16:34:10Z</time>
      </trkpt>
      <trkpt lat="44.46302" lon="3.17115">
        <ele>846.567</ele>
        <time>2019-07-07T16:34:30Z</time>
      </trkpt>
      <trkpt lat="44.46265" lon="3.16967">
        <ele>858.161</ele>
        <time>2019-07-07T16:34:50Z</time>
      </trkpt>
      <trkpt lat="44.46342" lon="3.16887">
        <ele>863.378</ele>
        <time>2019-07-07T16:35:10Z</time>
      </trkpt>
      <trkpt lat="44.46345" lon="3.16863">
        <ele>859.782</ele>
        <time>2019-07-07T16:35:30Z</time>
      </trkpt>
      <trkpt lat="44.46248" lon="3.16842">
        <ele>846.899</ele>
        <time>2019-07-07T16:35:50Z</time>
      </trkpt>
      <trkpt lat="44.4605" lon="3.16728">
        <ele>818.458</ele>
        <time>2019-07-07T16:36:10Z</time>
      </trkpt>
      <trkpt lat="44.46018" lon="3.167">
        <ele>815.494</ele>
        <time>2019-07-07T16:36:30Z</time>
      </trkpt>
      <trkpt lat="44.4592" lon="3.16689">
        <ele>800.371</ele>
        <time>2019-07-07T16:36:50Z</time>
      </trkpt>
      <trkpt lat="44.45869" lon="3.16752">
        <ele>793.841</ele>
        <time>2019-07-07T16:37:10Z</time>
      </trkpt>
      <trkpt lat="44.45889" lon="3.16947">
        <ele>809.115</ele>
        <time>2019-07-07T16:37:30Z</time>
      </trkpt>
      <trkpt lat="44.45868" lon="3.17068">
        <ele>808.708</ele>
        <time>2019-07-07T16:37:50Z</time>
      </trkpt>
      <trkpt lat="44.4586" lon="3.17214">
        <ele>811.541</ele>
        <time>2019-07-07T16:38:10Z</time>
      </trkpt>
      <trkpt lat="44.45837" lon="3.17315">
        <ele>809.655</ele>
        <time>2019-07-07T16:38:30Z</time>
      </trkpt>
      <trkpt lat="44.45786" lon="3.17341">
        <ele>810.029</ele>
        <time>2019-07-07T16:38:50Z</time>
      </trkpt>
      <trkpt lat="44.45702" lon="3.17318">
        <ele>805.126</ele>
        <time>2019-07-07T16:39:10Z</time>
      </trkpt>
      <trkpt lat="44.45541" lon="3.17343">
        <ele>786.37</ele>
        <time>2019-07-07T16:39:30Z</time>
      </trkpt>
      <trkpt lat="44.45429" lon="3.17219">
        <ele>765.657</ele>
        <time>2019-07-07T16:39:50Z</time>
      </trkpt>
      <trkpt lat="44.45392" lon="3.17294">
        <ele>766.916</ele>
        <time>2019-07-07T16:40:10Z</time>
      </trkpt>
      <trkpt lat="44.45388" lon="3.17404">
        <ele>766.892</ele>
        <time>2019-07-07T16:40:30Z</time>
      </trkpt>
      <trkpt lat="44.45401" lon="3.17488">
        <ele>763.125</ele>
        <time>2019-07-07T16:40:50Z</time>
      </trkpt>
      <trkpt lat="44.45429" lon="3.17573">
        <ele>755.026</ele>
        <time>2019-07-07T16:41:10Z</time>
      </trkpt>
      <trkpt lat="44.45454" lon="3.17591">
        <ele>753.608</ele>
        <time>2019-07-07T16:41:30Z</time>
      </trkpt>
      <trkpt lat="44.45461" lon="3.17688">
        <ele>744.608</ele>
        <time>2019-07-07T16:41:50Z</time>
      </trkpt>
      <trkpt lat="44.45446" lon="3.17767">
        <ele>747.846</ele>
        <time>2019-07-07T16:42:10Z</time>
      </trkpt>
      <trkpt lat="44.45414" lon="3.17791">
        <ele>740.56</ele>
        <time>2019-07-07T16:42:30Z</time>
      </trkpt>
      <trkpt lat="44.45408" lon="3.17823">
        <ele>739.884</ele>
        <time>2019-07-07T16:42:50Z</time>
      </trkpt>
      <trkpt lat="44.45328" lon="3.17856">
        <ele>739.171</ele>
        <time>2019-07-07T16:43:10Z</time>
      </trkpt>
      <trkpt lat="44.45229" lon="3.17898">
        <ele>732.685</ele>
        <time>2019-07-07T16:43:30Z</time>
      </trkpt>
      <trkpt lat="44.45145" lon="3.17974">
        <ele>725.922</ele>
        <time>2019-07-07T16:43:50Z</time>
      </trkpt>
      <trkpt lat="44.45072" lon="3.18028">
        <ele>718.091</ele>
        <time>2019-07-07T16:44:10Z</time>
      </trkpt>
      <trkpt lat="44.44973" lon="3.18112">
        <ele>703.977</ele>
        <time>2019-07-07T16:44:30Z</time>
      </trkpt>
      <trkpt lat="44.44885" lon="3.18127">
        <ele>696.871</ele>
        <time>2019-07-07T16:44:50Z</time>
      </trkpt>
      <trkpt lat="44.44872" lon="3.18084">
        <ele>694.741</ele>
        <time>2019-07-07T16:45:10Z</time>
      </trkpt>
      <trkpt lat="44.44896" lon="3.17965">
        <ele>685.615</ele>
        <time>2019-07-07T16:45:30Z</time>
      </trkpt>
      <trkpt lat="44.44892" lon="3.17898">
        <ele>679.508</ele>
        <time>2019-07-07T16:45:50Z</time>
      </trkpt>
      <trkpt lat="44.44849" lon="3.17901">
        <ele>686.741</ele>
        <time>2019-07-07T16:46:10Z</time>
      </trkpt>
      <trkpt lat="44.44798" lon="3.17778">
        <ele>683.575</ele>
        <time>2019-07-07T16:46:30Z</time>
      </trkpt>
      <trkpt lat="44.44766" lon="3.17767">
        <ele>684.149</ele>
        <time>2019-07-07T16:46:50Z</time>
      </trkpt>
      <trkpt lat="44.44646" lon="3.1787">
        <ele>663.546</ele>
        <time>2019-07-07T16:47:10Z</time>
      </trkpt>
      <trkpt lat="44.44602" lon="3.17969">
        <ele>656.33</ele>
        <time>2019-07-07T16:47:30Z</time>
      </trkpt>
      <trkpt lat="44.4449" lon="3.18086">
        <ele>642.327</ele>
        <time>2019-07-07T16:47:50Z</time>
      </trkpt>
      <trkpt lat="44.44454" lon="3.18137">
        <ele>638.426</ele>
        <time>2019-07-07T16:48:10Z</time>
      </trkpt>
      <trkpt lat="44.44381" lon="3.18198">
        <ele>631.112</ele>
        <time>2019-07-07T16:48:30Z</time>
      </trkpt>
      <trkpt lat="44.4434" lon="3.18204">
        <ele>623.866</ele>
        <time>2019-07-07T16:48:50Z</time>
      </trkpt>
      <trkpt lat="44.44322" lon="3.1826">
        <ele>621.429</ele>
        <time>2019-07-07T16:49:10Z</time>
      </trkpt>
      <trkpt lat="44.44272" lon="3.18353">
        <ele>606.921</ele>
        <time>2019-07-07T16:49:30Z</time>
      </trkpt>
      <trkpt lat="44.44257" lon="3.184">
        <ele>599.208</ele>
        <time>2019-07-07T16:49:50Z</time>
      </trkpt>
      <trkpt lat="44.44241" lon="3.18424">
        <ele>593.41</ele>
        <time>2019-07-07T16:50:10Z</time>
      </trkpt>
      <trkpt lat="44.44232" lon="3.18482">
        <ele>588.434</ele>
        <time>2019-07-07T16:50:30Z</time>
      </trkpt>
      <trkpt lat="44.44253" lon="3.18523">
        <ele>589.958</ele>
        <time>2019-07-07T16:50:50Z</time>
      </trkpt>
      <trkpt lat="44.44268" lon="3.18619">
        <ele>584.585</ele>
        <time>2019-07-07T16:51:10Z</time>
      </trkpt>
      <trkpt lat="44.44306" lon="3.18658">
        <ele>587.879</ele>
        <time>2019-07-07T16:51:30Z</time>
      </trkpt>
      <trkpt lat="44.44321" lon="3.18736">
        <ele>582.096</ele>
        <time>2019-07-07T16:51:50Z</time>
      </trkpt>
      <trkpt lat="44.44312" lon="3.18764">
        <ele>580.265</ele>
        <time>2019-07-07T16:52:10Z</time>
      </trkpt>
      <trkpt lat="44.44286" lon="3.18774">
        <ele>574.831</ele>
        <time>2019-07-07T16:52:30Z</time>
      </trkpt>
      <trkpt lat="44.44313" lon="3.18884">
        <ele>582.485</ele>
        <time>2019-07-07T16:52:50Z</time>
      </trkpt>
      <trkpt lat="44.44376" lon="3.19011">
        <ele>588.089</ele>
        <time>2019-07-07T16:53:10Z</time>
      </trkpt>
      <trkpt lat="44.44414" lon="3.19108">
        <ele>584.817</ele>
        <time>2019-07-07T16:53:30Z</time>
      </trkpt>
      <trkpt lat="44.44449" lon="3.19211">
        <ele>585.408</ele>
        <time>2019-07-07T16:53:50Z</time>
      </trkpt>
      <trkpt lat="44.44494" lon="3.19314">
        <ele>588.032</ele>
        <time>2019-07-07T16:54:10Z</time>
      </trkpt>
      <trkpt lat="44.44416" lon="3.19289">
        <ele>574.996</ele>
        <time>2019-07-07T16:54:30Z</time>
      </trkpt>
      <trkpt lat="44.4428" lon="3.19334">
        <ele>543.16</ele>
        <time>2019-07-07T16:54:50Z</time>
      </trkpt>
      <trkpt lat="44.4418" lon="3.1934">
        <ele>531.657</ele>
        <time>2019-07-07T16:55:10Z</time>
      </trkpt>
      <trkpt lat="44.44142" lon="3.19323">
        <ele>529.741</ele>
        <time>2019-07-07T16:55:30Z</time>
      </trkpt>
      <trkpt lat="44.44182" lon="3.1939">
        <ele>526.558</ele>
        <time>2019-07-07T16:55:50Z</time>
      </trkpt>
      <trkpt lat="44.44285" lon="3.19513">
        <ele>529.027</ele>
        <time>2019-07-07T16:56:10Z</time>
      </trkpt>
      <trkpt lat="44.44338" lon="3.19612">
        <ele>534.063</ele>
        <time>2019-07-07T16:56:30Z</time>
      </trkpt>
      <trkpt lat="44.44411" lon="3.19684">
        <ele>539.2</ele>
      </trkpt>
      <trkpt lat="44.44474" lon="3.19711">
        <ele>538.5</ele>
      </trkpt>
      <trkpt lat="44.44543" lon="3.19708">
        <ele>537.1</ele>
      </trkpt>
      <trkpt lat="44.44598" lon="3.19669">
        <ele>538.8</ele>
      </trkpt>
      <trkpt lat="44.4466" lon="3.19623">
        <ele>537.7</ele>
      </trkpt>
      <trkpt lat="44.44717" lon="3.19575">
        <ele>536.6</ele>
      </trkpt>
      <trkpt lat="44.4476" lon="3.1956">
        <ele>533</ele>
      </trkpt>
    </trkseg>
  </trk>
</gpx>